createdAt,value
2023-12-03T00:02:32.815Z,102050.00
2023-12-03T00:05:14.174Z,102044.75
2023-12-03T00:07:54.025Z,102037.72
2023-12-03T00:10:33.928Z,102034.31
2023-12-03T00:13:13.641Z,102045.78
2023-12-03T00:15:53.526Z,102042.19
2023-12-03T00:18:33.736Z,102042.03
2023-12-03T00:21:13.363Z,102041.16
2023-12-03T00:23:53.951Z,102039.44
2023-12-03T00:26:33.768Z,102044.75
2023-12-03T00:29:14.200Z,102042.09
2023-12-03T00:31:54.391Z,102046.47
2023-12-03T00:34:35.055Z,102044.69
2023-12-03T00:37:14.610Z,102043.81
2023-12-03T00:39:54.875Z,102043.81
2023-12-03T00:42:34.704Z,102047.41
2023-12-03T00:45:14.852Z,102049.13
2023-12-03T00:47:55.047Z,102046.41
2023-12-03T00:50:34.757Z,102043.81
2023-12-03T00:53:14.940Z,102044.75
2023-12-03T00:55:55.860Z,102037.56
2023-12-03T00:58:35.938Z,102045.38
2023-12-03T01:01:16.073Z,102050.69
2023-12-03T01:03:55.635Z,102052.50
2023-12-03T01:06:35.892Z,102048.03
2023-12-03T01:09:15.346Z,102055.22
2023-12-03T01:11:57.713Z,102056.03
2023-12-03T01:14:37.824Z,102056.84
2023-12-03T01:17:17.547Z,102062.16
2023-12-03T01:20:00.389Z,102062.84
2023-12-03T01:22:40.517Z,102065.50
2023-12-03T01:25:20.651Z,102063.72
2023-12-03T01:28:00.587Z,102067.25
2023-12-03T01:30:40.763Z,102068.88
2023-12-03T01:33:21.083Z,102065.38
2023-12-03T01:36:01.009Z,102068.84
2023-12-03T01:38:41.376Z,102069.75
2023-12-03T01:41:22.197Z,102081.19
2023-12-03T01:44:01.999Z,102078.38
2023-12-03T01:46:41.647Z,102079.16
2023-12-03T01:49:22.991Z,102079.94
2023-12-03T01:52:04.293Z,102086.13
2023-12-03T01:54:47.138Z,102084.28
2023-12-03T01:57:31.565Z,102087.81
2023-12-03T02:00:12.334Z,102089.59
2023-12-03T02:02:52.525Z,102083.28
2023-12-03T02:05:32.234Z,102091.09
2023-12-03T02:08:11.742Z,102089.28
2023-12-03T02:10:51.950Z,102091.00
2023-12-03T02:13:34.477Z,102097.06
2023-12-03T02:16:14.045Z,102096.06
2023-12-03T02:18:58.594Z,102101.22
2023-12-03T02:21:38.091Z,102095.03
2023-12-03T02:24:19.100Z,102092.31
2023-12-03T02:27:00.684Z,102098.47
2023-12-03T02:29:42.477Z,102096.75
2023-12-03T02:32:22.228Z,102101.97
2023-12-03T02:35:01.899Z,102094.75
2023-12-03T02:37:41.644Z,102094.69
2023-12-03T02:40:21.493Z,102096.47
2023-12-03T02:43:01.892Z,102096.47
2023-12-03T02:45:42.057Z,102087.72
2023-12-03T02:48:21.904Z,102095.63
2023-12-03T02:51:01.446Z,102092.88
2023-12-03T02:53:47.929Z,102083.09
2023-12-03T02:56:30.867Z,102088.25
2023-12-03T02:59:10.918Z,102093.53
2023-12-03T03:01:50.552Z,102099.66
2023-12-03T03:04:34.786Z,102104.88
2023-12-03T03:07:13.772Z,102109.25
2023-12-03T03:09:53.916Z,102101.38
2023-12-03T03:12:34.037Z,102104.88
2023-12-03T03:15:13.814Z,102118.19
2023-12-03T03:17:53.882Z,102109.34
2023-12-03T03:20:33.975Z,102118.19
2023-12-03T03:23:13.682Z,102110.13
2023-12-03T03:25:53.857Z,102110.22
2023-12-03T03:28:35.912Z,102110.22
2023-12-03T03:31:18.009Z,102110.28
2023-12-03T03:34:01.325Z,102113.81
2023-12-03T03:36:43.483Z,102113.88
2023-12-03T03:39:23.113Z,102111.22
2023-12-03T03:42:02.877Z,102106.97
2023-12-03T03:44:42.372Z,102109.78
2023-12-03T03:47:22.672Z,102111.59
2023-12-03T03:50:02.939Z,102111.50
2023-12-03T03:52:43.068Z,102108.84
2023-12-03T03:55:22.673Z,102111.50
2023-12-03T03:58:02.282Z,102113.38
2023-12-03T04:00:41.976Z,102107.56
2023-12-03T04:06:09.967Z,102110.38
2023-12-03T04:08:50.184Z,102119.69
2023-12-03T04:11:29.817Z,102115.81
2023-12-03T04:14:10.997Z,102116.16
2023-12-03T04:16:53.322Z,102116.41
2023-12-03T04:19:35.511Z,102121.16
2023-12-03T04:22:16.083Z,102125.00
2023-12-03T04:24:55.736Z,102117.44
2023-12-03T04:27:35.323Z,102124.78
2023-12-03T04:30:15.098Z,102118.00
2023-12-03T04:32:54.761Z,102121.88
2023-12-03T04:35:34.869Z,102124.06
2023-12-03T04:40:54.808Z,102125.38
2023-12-03T04:43:34.464Z,102126.41
2023-12-03T04:46:15.533Z,102128.47
2023-12-03T04:48:55.220Z,102134.03
2023-12-03T04:51:35.040Z,102137.75
2023-12-03T04:54:14.883Z,102137.84
2023-12-03T04:56:55.148Z,102147.75
2023-12-03T04:59:34.753Z,102146.19
2023-12-03T05:02:18.853Z,102144.66
2023-12-03T05:04:58.472Z,102151.00
2023-12-03T05:07:38.168Z,102148.53
2023-12-03T05:10:20.207Z,102144.22
2023-12-03T05:12:59.850Z,102141.59
2023-12-03T05:15:40.014Z,102140.81
2023-12-03T05:18:19.738Z,102150.69
2023-12-03T05:21:00.592Z,102143.75
2023-12-03T05:23:45.141Z,102146.53
2023-12-03T05:26:23.383Z,102144.94
2023-12-03T05:29:03.505Z,102151.22
2023-12-03T05:31:47.477Z,102150.41
2023-12-03T05:34:28.167Z,102145.16
2023-12-03T05:37:07.980Z,102147.81
2023-12-03T05:39:48.088Z,102143.44
2023-12-03T05:42:28.160Z,102147.19
2023-12-03T05:45:09.193Z,102149.88
2023-12-03T05:47:51.648Z,102149.16
2023-12-03T05:50:32.085Z,102151.09
2023-12-03T05:53:11.738Z,102154.78
2023-12-03T05:55:51.832Z,102150.56
2023-12-03T05:58:32.063Z,102157.78
2023-12-03T06:01:11.755Z,102148.19
2023-12-03T06:03:52.618Z,102150.88
2023-12-03T06:06:32.548Z,102155.41
2023-12-03T06:09:13.122Z,102161.69
2023-12-03T06:11:52.805Z,102161.69
2023-12-03T06:14:34.151Z,102170.56
2023-12-03T06:17:12.998Z,102163.47
2023-12-03T06:19:52.631Z,102173.16
2023-12-03T06:22:34.144Z,102180.25
2023-12-03T06:25:12.775Z,102167.06
2023-12-03T06:30:33.039Z,102178.47
2023-12-03T06:33:14.549Z,102180.13
2023-12-03T06:35:55.818Z,102187.06
2023-12-03T06:38:36.173Z,102192.25
2023-12-03T06:41:17.613Z,102179.72
2023-12-03T06:43:56.150Z,102192.88
2023-12-03T06:46:43.356Z,102186.53
2023-12-03T06:49:21.144Z,102180.31
2023-12-03T06:51:59.492Z,102179.44
2023-12-03T06:54:42.043Z,102184.88
2023-12-03T06:57:21.028Z,102186.78
2023-12-03T07:00:00.698Z,102184.16
2023-12-03T07:02:43.547Z,102188.72
2023-12-03T07:05:24.185Z,102187.97
2023-12-03T07:08:03.886Z,102186.25
2023-12-03T07:10:43.522Z,102197.00
2023-12-03T07:13:24.308Z,102198.09
2023-12-03T07:16:02.842Z,102202.69
2023-12-03T07:18:45.719Z,102198.38
2023-12-03T07:21:26.096Z,102207.19
2023-12-03T07:24:09.957Z,102202.00
2023-12-03T07:26:50.339Z,102198.53
2023-12-03T07:29:29.991Z,102201.22
2023-12-03T07:32:09.631Z,102203.94
2023-12-03T07:34:49.695Z,102198.75
2023-12-03T07:37:30.943Z,102191.66
2023-12-03T07:40:11.938Z,102184.66
2023-12-03T07:42:51.451Z,102190.88
2023-12-03T07:45:32.044Z,102187.38
2023-12-03T07:48:10.772Z,102183.81
2023-12-03T07:50:50.909Z,102197.06
2023-12-03T07:53:31.251Z,102189.97
2023-12-03T07:56:11.391Z,102196.19
2023-12-03T07:58:52.149Z,102199.69
2023-12-03T08:01:32.243Z,102195.28
2023-12-03T08:04:11.972Z,102210.22
2023-12-03T08:06:52.202Z,102206.59
2023-12-03T08:09:31.770Z,102208.25
2023-12-03T08:12:16.639Z,102211.69
2023-12-03T08:14:57.171Z,102208.03
2023-12-03T08:17:36.836Z,102217.66
2023-12-03T08:20:16.994Z,102211.34
2023-12-03T08:22:57.193Z,102209.44
2023-12-03T08:25:36.787Z,102224.34
2023-12-03T08:28:16.993Z,102220.63
2023-12-03T08:30:57.260Z,102228.25
2023-12-03T08:33:37.072Z,102220.94
2023-12-03T08:36:21.535Z,102221.41
2023-12-03T08:39:04.164Z,102220.16
2023-12-03T08:41:43.834Z,102218.91
2023-12-03T08:44:24.242Z,102222.16
2023-12-03T08:47:05.071Z,102219.16
2023-12-03T08:49:47.056Z,102221.53
2023-12-03T08:52:27.091Z,102234.44
2023-12-03T08:55:08.594Z,102231.00
2023-12-03T08:57:48.812Z,102226.09
2023-12-03T09:00:28.716Z,102229.69
2023-12-03T09:03:08.745Z,102223.19
2023-12-03T09:05:51.811Z,102237.44
2023-12-03T09:08:32.681Z,102235.97
2023-12-03T09:11:13.904Z,102236.19
2023-12-03T09:13:54.045Z,102229.06
2023-12-03T09:16:34.157Z,102235.66
2023-12-03T09:19:13.986Z,102234.47
2023-12-03T09:21:54.116Z,102228.47
2023-12-03T09:24:34.271Z,102229.47
2023-12-03T09:27:13.859Z,102230.53
2023-12-03T09:32:34.974Z,102232.75
2023-12-03T09:35:14.658Z,102224.88
2023-12-03T09:37:54.819Z,102227.16
2023-12-03T09:40:38.192Z,102224.31
2023-12-03T09:43:20.359Z,102212.59
2023-12-03T09:46:02.245Z,102221.25
2023-12-03T09:48:46.018Z,102215.03
2023-12-03T09:51:25.801Z,102214.53
2023-12-03T09:54:13.073Z,102212.84
2023-12-03T09:57:01.560Z,102226.09
2023-12-03T09:59:50.771Z,102218.84
2023-12-03T10:02:32.169Z,102214.13
2023-12-03T10:05:12.409Z,102210.47
2023-12-03T10:07:52.230Z,102212.91
2023-12-03T10:10:33.987Z,102213.31
2023-12-03T10:13:15.319Z,102217.66
2023-12-03T10:15:55.045Z,102213.97
2023-12-03T10:18:33.155Z,102207.19
2023-12-03T10:21:17.301Z,102207.97
2023-12-03T10:24:04.954Z,102207.88
2023-12-03T10:26:57.579Z,102201.22
2023-12-03T10:29:41.781Z,102204.44
2023-12-03T10:32:23.581Z,102204.84
2023-12-03T10:35:03.184Z,102194.03
2023-12-03T10:37:43.861Z,102182.97
2023-12-03T10:40:24.021Z,102188.16
2023-12-03T10:43:03.701Z,102194.84
2023-12-03T10:45:43.276Z,102183.97
2023-12-03T10:48:25.791Z,102188.84
2023-12-03T10:51:15.040Z,102177.22
2023-12-03T10:53:56.781Z,102182.53
2023-12-03T10:56:37.707Z,102181.81
2023-12-03T10:59:24.117Z,102178.44
2023-12-03T11:02:12.714Z,102177.00
2023-12-03T11:05:10.634Z,102173.72
2023-12-03T11:07:52.054Z,102164.63
2023-12-03T11:10:33.228Z,102169.09
2023-12-03T11:13:13.736Z,102163.50
2023-12-03T11:15:55.728Z,102157.00
2023-12-03T11:18:44.521Z,102155.75
2023-12-03T11:22:20.843Z,102146.41
2023-12-03T11:25:26.178Z,102143.00
2023-12-03T11:28:06.062Z,102131.78
2023-12-03T11:30:46.294Z,102131.09
2023-12-03T11:33:32.524Z,102126.06
2023-12-03T11:36:13.553Z,102127.34
2023-12-03T11:38:54.161Z,102126.59
2023-12-03T11:41:41.208Z,102121.22
2023-12-03T11:44:23.487Z,102115.63
2023-12-03T11:47:13.609Z,102113.44
2023-12-03T11:49:54.205Z,102112.16
2023-12-03T11:52:34.481Z,102115.56
2023-12-03T11:55:22.258Z,102115.56
2023-12-03T11:58:03.137Z,102105.59
2023-12-03T12:00:43.152Z,102100.03
2023-12-03T12:03:22.942Z,102095.81
2023-12-03T12:06:02.808Z,102099.63
2023-12-03T12:08:42.388Z,102115.31
2023-12-03T12:11:22.187Z,102112.81
2023-12-03T12:14:02.215Z,102107.25
2023-12-03T12:16:42.005Z,102102.84
2023-12-03T12:19:21.830Z,102108.97
2023-12-03T12:22:01.317Z,102103.63
2023-12-03T12:24:48.210Z,102100.97
2023-12-03T12:27:28.000Z,102111.78
2023-12-03T12:30:18.067Z,102116.09
2023-12-03T12:32:53.360Z,102120.34
2023-12-03T12:35:34.828Z,102107.50
2023-12-03T12:38:14.032Z,102113.00
2023-12-03T12:40:57.972Z,102111.81
2023-12-03T12:43:52.974Z,102112.91
2023-12-03T12:46:34.102Z,102112.97
2023-12-03T12:49:20.225Z,102106.25
2023-12-03T12:52:15.666Z,102102.47
2023-12-03T12:55:01.170Z,102105.06
2023-12-03T12:57:36.251Z,102106.94
2023-12-03T13:00:16.172Z,102092.53
2023-12-03T13:02:57.179Z,102099.25
2023-12-03T13:05:37.340Z,102096.50
2023-12-03T13:08:16.972Z,102090.25
2023-12-03T13:10:56.765Z,102086.63
2023-12-03T13:13:36.384Z,102087.63
2023-12-03T13:16:16.641Z,102079.97
2023-12-03T13:18:56.130Z,102073.63
2023-12-03T13:21:36.323Z,102072.59
2023-12-03T13:24:23.336Z,102063.59
2023-12-03T13:26:56.807Z,102068.03
2023-12-03T13:29:36.418Z,102063.66
2023-12-03T13:32:16.046Z,102061.94
2023-12-03T13:34:55.765Z,102065.53
2023-12-03T13:37:39.453Z,102054.78
2023-12-03T13:40:17.319Z,102048.69
2023-12-03T13:42:57.236Z,102050.50
2023-12-03T13:45:42.215Z,102048.22
2023-12-03T13:48:25.482Z,102050.91
2023-12-03T13:51:04.769Z,102054.50
2023-12-03T13:53:45.107Z,102055.44
2023-12-03T13:56:24.844Z,102055.53
2023-12-03T13:59:05.085Z,102053.91
2023-12-03T14:01:44.781Z,102052.25
2023-12-03T14:04:24.601Z,102048.97
2023-12-03T14:07:04.413Z,102051.88
2023-12-03T14:09:44.951Z,102052.72
2023-12-03T14:12:24.725Z,102047.56
2023-12-03T14:15:04.676Z,102049.44
2023-12-03T14:17:45.409Z,102049.53
2023-12-03T14:20:25.044Z,102041.63
2023-12-03T14:23:05.201Z,102028.53
2023-12-03T14:25:44.839Z,102034.81
2023-12-03T14:28:24.998Z,102037.63
2023-12-03T14:31:05.767Z,102034.34
2023-12-03T14:33:46.939Z,102038.88
2023-12-03T14:36:27.480Z,102026.50
2023-12-03T14:39:10.373Z,102028.31
2023-12-03T14:41:50.353Z,102026.50
2023-12-03T14:44:30.005Z,102020.41
2023-12-03T14:47:10.075Z,102022.31
2023-12-03T14:49:49.619Z,102017.88
2023-12-03T14:52:29.712Z,102010.94
2023-12-03T14:55:11.403Z,102008.44
2023-12-03T14:57:52.579Z,102012.19
2023-12-03T15:00:37.397Z,102002.63
2023-12-03T15:03:17.094Z,101996.44
2023-12-03T15:05:59.099Z,102002.72
2023-12-03T15:08:38.970Z,102000.22
2023-12-03T15:11:19.798Z,102006.31
2023-12-03T15:13:59.608Z,101989.56
2023-12-03T15:16:40.100Z,101997.63
2023-12-03T15:19:20.406Z,101992.38
2023-12-03T15:22:00.236Z,101992.47
2023-12-03T15:24:40.256Z,101983.63
2023-12-03T15:27:22.405Z,101981.03
2023-12-03T15:30:02.326Z,101978.38
2023-12-03T15:32:42.375Z,101980.19
2023-12-03T15:35:22.385Z,101978.38
2023-12-03T15:38:01.971Z,101971.41
2023-12-03T15:40:41.546Z,101967.81
2023-12-03T15:43:29.895Z,101967.03
2023-12-03T15:46:05.565Z,101970.69
2023-12-03T15:48:45.163Z,101956.53
2023-12-03T15:51:25.538Z,101946.03
2023-12-03T15:54:05.218Z,101941.66
2023-12-03T15:56:45.285Z,101938.22
2023-12-03T15:59:24.806Z,101932.06
2023-12-03T16:02:06.006Z,101924.13
2023-12-03T16:04:47.085Z,101927.59
2023-12-03T16:07:27.050Z,101933.78
2023-12-03T16:10:07.940Z,101928.44
2023-12-03T16:12:48.788Z,101927.59
2023-12-03T16:15:28.297Z,101932.09
2023-12-03T16:18:08.575Z,101918.88
2023-12-03T16:20:48.150Z,101924.13
2023-12-03T16:23:27.813Z,101917.84
2023-12-03T16:26:07.954Z,101923.13
2023-12-03T16:28:47.756Z,101910.69
2023-12-03T16:31:27.500Z,101910.75
2023-12-03T16:34:07.191Z,101907.16
2023-12-03T16:36:47.286Z,101901.84
2023-12-03T16:39:29.635Z,101900.97
2023-12-03T16:42:09.868Z,101900.03
2023-12-03T16:44:52.276Z,101903.56
2023-12-03T16:47:32.717Z,101892.06
2023-12-03T16:50:12.867Z,101898.22
2023-12-03T16:52:53.450Z,101894.63
2023-12-03T16:55:33.492Z,101889.31
2023-12-03T16:58:13.186Z,101887.59
2023-12-03T17:00:53.240Z,101885.78
2023-12-03T17:03:35.273Z,101885.78
2023-12-03T17:06:17.409Z,101888.44
2023-12-03T17:08:58.923Z,101890.25
2023-12-03T17:11:45.313Z,101883.22
2023-12-03T17:14:24.601Z,101889.47
2023-12-03T17:17:07.927Z,101886.81
2023-12-03T17:19:48.582Z,101876.22
2023-12-03T17:22:28.208Z,101876.56
2023-12-03T17:25:08.248Z,101869.84
2023-12-03T17:27:48.550Z,101871.88
2023-12-03T17:30:28.252Z,101876.56
2023-12-03T17:33:09.797Z,101863.56
2023-12-03T17:35:51.800Z,101871.72
2023-12-03T17:38:31.418Z,101863.13
2023-12-03T17:41:10.962Z,101857.16
2023-12-03T17:46:33.441Z,101859.69
2023-12-03T17:49:15.352Z,101855.69
2023-12-03T17:51:54.918Z,101854.19
2023-12-03T17:54:36.578Z,101851.75
2023-12-03T17:57:16.404Z,101842.38
2023-12-03T17:59:56.062Z,101848.63
2023-12-03T18:02:35.822Z,101841.66
2023-12-03T18:05:16.522Z,101840.25
2023-12-03T18:07:56.126Z,101841.38
2023-12-03T18:10:36.088Z,101837.09
2023-12-03T18:13:17.727Z,101833.72
2023-12-03T18:15:57.797Z,101836.84
2023-12-03T18:18:37.895Z,101840.63
2023-12-03T18:21:20.328Z,101841.72
2023-12-03T18:24:00.462Z,101839.28
2023-12-03T18:26:40.503Z,101835.91
2023-12-03T18:29:20.387Z,101835.25
2023-12-03T18:31:59.968Z,101823.06
2023-12-03T18:34:43.140Z,101816.19
2023-12-03T18:37:23.288Z,101817.50
2023-12-03T18:40:10.549Z,101814.06
2023-12-03T18:42:50.199Z,101804.34
2023-12-03T18:45:30.394Z,101809.03
2023-12-03T18:48:10.660Z,101810.03
2023-12-03T18:50:54.059Z,101797.63
2023-12-03T18:53:37.333Z,101795.81
2023-12-03T18:56:17.720Z,101794.97
2023-12-03T18:58:57.229Z,101789.75
2023-12-03T19:01:37.658Z,101795.94
2023-12-03T19:04:16.781Z,101784.44
2023-12-03T19:06:56.589Z,101791.50
2023-12-03T19:09:36.815Z,101789.78
2023-12-03T19:12:16.454Z,101781.91
2023-12-03T19:14:56.280Z,101784.47
2023-12-03T19:17:36.519Z,101784.56
2023-12-03T19:20:16.189Z,101783.84
2023-12-03T19:23:05.615Z,101775.88
2023-12-03T19:25:45.171Z,101778.63
2023-12-03T19:28:27.893Z,101775.88
2023-12-03T19:31:06.434Z,101767.16
2023-12-03T19:33:46.600Z,101766.34
2023-12-03T19:36:26.372Z,101763.75
2023-12-03T19:39:09.564Z,101762.91
2023-12-03T19:41:49.221Z,101751.44
2023-12-03T19:44:28.864Z,101750.56
2023-12-03T19:47:09.188Z,101747.06
2023-12-03T19:49:49.355Z,101746.13
2023-12-03T19:52:29.020Z,101732.84
2023-12-03T19:55:09.717Z,101730.22
2023-12-03T19:57:51.474Z,101727.47
2023-12-03T20:00:31.650Z,101727.63
2023-12-03T20:03:11.131Z,101722.25
2023-12-03T20:05:51.238Z,101722.25
2023-12-03T20:08:31.219Z,101718.03
2023-12-03T20:11:11.572Z,101709.91
2023-12-03T20:13:51.157Z,101716.09
2023-12-03T20:16:31.105Z,101725.84
2023-12-03T20:19:11.244Z,101723.09
2023-12-03T20:21:50.864Z,101716.09
2023-12-03T20:24:31.488Z,101711.63
2023-12-03T20:27:09.283Z,101711.63
2023-12-03T20:29:49.210Z,101694.94
2023-12-03T20:32:28.463Z,101702.03
2023-12-03T20:35:12.044Z,101696.72
2023-12-03T20:37:52.141Z,101694.16
2023-12-03T20:43:15.381Z,101677.31
2023-12-03T20:45:54.995Z,101684.41
2023-12-03T20:48:35.470Z,101679.22
2023-12-03T20:51:16.041Z,101679.19
2023-12-03T20:53:56.996Z,101675.66
2023-12-03T20:56:35.467Z,101665.97
2023-12-03T20:59:16.335Z,101669.50
2023-12-03T21:01:55.815Z,101672.94
2023-12-03T21:04:35.815Z,101673.78
2023-12-03T21:07:15.460Z,101669.28
2023-12-03T21:09:55.566Z,101658.66
2023-12-03T21:12:36.818Z,101652.41
2023-12-03T21:15:16.879Z,101649.75
2023-12-03T21:17:57.702Z,101641.81
2023-12-03T21:20:37.618Z,101637.34
2023-12-03T21:23:17.429Z,101632.03
2023-12-03T21:25:59.189Z,101634.63
2023-12-03T21:28:38.981Z,101625.72
2023-12-03T21:31:18.732Z,101624.88
2023-12-03T21:34:00.971Z,101614.25
2023-12-03T21:36:40.579Z,101621.28
2023-12-03T21:39:22.564Z,101614.22
2023-12-03T21:42:02.288Z,101600.84
2023-12-03T21:44:41.980Z,101606.09
2023-12-03T21:47:22.106Z,101605.06
2023-12-03T21:50:01.772Z,101590.84
2023-12-03T21:52:43.403Z,101584.63
2023-12-03T21:55:23.139Z,101578.38
2023-12-03T21:58:03.557Z,101572.06
2023-12-03T22:00:44.295Z,101569.34
2023-12-03T22:03:24.630Z,101565.75
2023-12-03T22:06:04.428Z,101573.63
2023-12-03T22:08:44.511Z,101564.81
2023-12-03T22:11:24.417Z,101570.88
2023-12-03T22:14:04.104Z,101562.84
2023-12-03T22:16:43.861Z,101564.59
2023-12-03T22:19:23.595Z,101561.84
2023-12-03T22:22:03.356Z,101574.94
2023-12-03T22:24:42.791Z,101566.06
2023-12-03T22:27:22.846Z,101564.09
2023-12-03T22:30:11.297Z,101563.09
2023-12-03T22:32:43.656Z,101563.09
2023-12-03T22:35:23.258Z,101558.56
2023-12-03T22:38:03.445Z,101547.09
2023-12-03T22:40:43.308Z,101545.19
2023-12-03T22:43:23.374Z,101547.84
2023-12-03T22:46:03.074Z,101546.22
2023-12-03T22:48:46.306Z,101548.09
2023-12-03T22:51:25.379Z,101554.31
2023-12-03T22:54:05.513Z,101552.69
2023-12-03T22:56:45.710Z,101535.84
2023-12-03T22:59:32.350Z,101530.53
2023-12-03T23:02:12.707Z,101529.59
2023-12-03T23:04:59.462Z,101525.13
2023-12-03T23:07:39.172Z,101522.56
2023-12-03T23:10:19.030Z,101528.81
2023-12-03T23:12:58.776Z,101527.19
2023-12-03T23:15:38.789Z,101528.22
2023-12-03T23:21:01.211Z,101517.91
2023-12-03T23:23:40.771Z,101515.31
2023-12-03T23:26:20.424Z,101517.19
2023-12-03T23:29:00.042Z,101511.97
2023-12-03T23:31:39.698Z,101504.88
2023-12-03T23:34:24.592Z,101503.09
2023-12-03T23:37:06.224Z,101494.19
2023-12-03T23:39:45.833Z,101494.00
2023-12-03T23:42:25.618Z,101492.13
2023-12-03T23:45:06.131Z,101495.50
2023-12-03T23:47:44.620Z,101495.41
2023-12-03T23:50:24.832Z,101492.59
2023-12-03T23:53:04.054Z,101484.47
2023-12-03T23:55:42.602Z,101480.81
2023-12-03T23:58:21.751Z,101477.13
